createdAt,value
2018-03-28T00:00:24.872Z,998.45
2018-03-28T00:05:20.964Z,998.47
2018-03-28T00:10:20.675Z,998.37
2018-03-28T00:15:20.296Z,998.36
2018-03-28T00:20:19.012Z,998.26
2018-03-28T00:25:14.972Z,998.18
2018-03-28T00:30:14.644Z,998.05
2018-03-28T00:35:13.792Z,998.05
2018-03-28T00:40:13.573Z,998.09
2018-03-28T00:45:10.013Z,998.04
2018-03-28T00:50:10.633Z,997.93
2018-03-28T00:55:05.452Z,997.96
2018-03-28T01:00:01.439Z,997.83
2018-03-28T01:05:01.116Z,997.82
2018-03-28T01:09:59.834Z,997.82
2018-03-28T01:14:58.514Z,997.77
2018-03-28T01:19:58.964Z,997.87
2018-03-28T01:24:53.482Z,997.81
2018-03-28T01:29:50.232Z,997.81
2018-03-28T01:34:46.014Z,997.88
2018-03-28T01:39:46.976Z,997.70
2018-03-28T01:44:42.541Z,997.77
2018-03-28T01:49:39.192Z,997.80
2018-03-28T01:54:35.335Z,997.68
2018-03-28T01:59:31.948Z,997.64
2018-03-28T02:04:28.579Z,997.60
2018-03-28T02:09:25.177Z,997.60
2018-03-28T02:14:21.556Z,997.74
2018-03-28T02:19:17.741Z,997.82
2018-03-28T02:24:18.758Z,997.71
2018-03-28T02:29:17.317Z,997.65
2018-03-28T02:34:17.358Z,997.69
2018-03-28T02:39:13.048Z,997.61
2018-03-28T02:44:12.305Z,997.54
2018-03-28T02:49:07.100Z,997.47
2018-03-28T02:54:04.290Z,997.47
2018-03-28T02:59:01.000Z,997.45
2018-03-28T03:04:00.301Z,997.46
2018-03-28T03:08:59.540Z,997.44
2018-03-28T03:13:54.398Z,997.52
2018-03-28T03:18:55.081Z,997.50
2018-03-28T03:23:50.220Z,997.51
2018-03-28T03:28:49.982Z,997.49
2018-03-28T03:33:48.410Z,997.50
2018-03-28T03:38:44.462Z,997.48
2018-03-28T03:43:44.800Z,997.54
2018-03-28T03:48:43.530Z,997.56
2018-03-28T03:53:39.349Z,997.62
2018-03-28T03:58:39.062Z,997.57
2018-03-28T04:03:33.976Z,997.58
2018-03-28T04:08:29.641Z,997.53
2018-03-28T04:13:30.202Z,997.35
2018-03-28T04:18:24.911Z,997.40
2018-03-28T04:23:21.009Z,997.42
2018-03-28T04:28:20.705Z,997.40
2018-03-28T04:33:19.823Z,997.43
2018-03-28T04:38:15.440Z,997.56
2018-03-28T04:43:12.047Z,997.48
2018-03-28T04:48:11.495Z,997.49
2018-03-28T04:53:11.624Z,997.51
2018-03-28T04:58:11.205Z,997.49
2018-03-28T05:03:06.984Z,997.53
2018-03-28T05:08:03.523Z,997.31
2018-03-28T05:13:04.925Z,997.26
2018-03-28T05:18:04.320Z,997.32
2018-03-28T05:23:02.935Z,997.43
2018-03-28T05:28:01.725Z,997.33
2018-03-28T05:33:02.506Z,997.42
2018-03-28T05:38:02.048Z,997.53
2018-03-28T05:43:00.698Z,997.50
2018-03-28T05:47:59.439Z,997.56
2018-03-28T05:52:54.483Z,997.56
2018-03-28T05:57:54.502Z,997.58
2018-03-28T06:02:53.987Z,997.59
2018-03-28T06:07:48.821Z,997.60
2018-03-28T06:12:49.440Z,997.60
2018-03-28T06:17:48.804Z,997.51
2018-03-28T06:22:47.850Z,997.54
2018-03-28T06:27:43.483Z,997.56
2018-03-28T06:32:43.433Z,997.50
2018-03-28T06:37:43.595Z,997.38
2018-03-28T06:42:42.174Z,997.42
2018-03-28T06:47:41.420Z,997.42
2018-03-28T06:52:36.526Z,997.33
2018-03-28T06:57:37.277Z,997.29
2018-03-28T07:02:37.069Z,997.28
2018-03-28T07:07:32.512Z,997.26
2018-03-28T07:12:32.062Z,997.19
2018-03-28T07:17:30.903Z,997.18
2018-03-28T07:22:30.792Z,997.15
2018-03-28T07:27:25.545Z,997.13
2018-03-28T07:32:21.401Z,997.28
2018-03-28T07:37:21.195Z,997.23
2018-03-28T07:42:16.411Z,997.18
2018-03-28T07:47:12.250Z,997.10
2018-03-28T07:52:09.003Z,997.28
2018-03-28T07:57:04.428Z,997.17
2018-03-28T08:02:05.353Z,997.27
2018-03-28T08:07:03.991Z,997.26
2018-03-28T08:12:03.067Z,997.31
2018-03-28T08:17:02.426Z,997.32
2018-03-28T08:21:58.538Z,997.22
2018-03-28T08:26:58.474Z,997.23
2018-03-28T08:31:57.860Z,997.23
2018-03-28T08:36:53.802Z,997.15
2018-03-28T08:41:50.947Z,997.05
2018-03-28T08:46:47.749Z,997.08
2018-03-28T08:51:44.264Z,997.04
2018-03-28T08:56:44.806Z,997.01
2018-03-28T09:01:40.801Z,997.02
2018-03-28T09:06:41.785Z,996.89
2018-03-28T09:11:38.031Z,997.02
2018-03-28T09:16:33.515Z,996.92
2018-03-28T09:21:33.193Z,996.83
2018-03-28T09:26:28.211Z,996.87
2018-03-28T09:31:28.001Z,996.97
2018-03-28T09:36:27.871Z,996.90
2018-03-28T09:41:23.653Z,996.88
2018-03-28T09:46:22.875Z,996.81
2018-03-28T09:51:18.856Z,996.85
2018-03-28T09:56:18.687Z,996.72
2018-03-28T10:01:13.904Z,996.67
2018-03-28T10:06:13.908Z,996.58
2018-03-28T10:11:09.463Z,996.53
2018-03-28T10:16:05.229Z,996.54
2018-03-28T10:21:00.896Z,996.54
2018-03-28T10:25:56.620Z,996.52
2018-03-28T10:30:53.829Z,996.54
2018-03-28T10:35:49.844Z,996.53
2018-03-28T10:40:45.602Z,996.52
2018-03-28T10:45:41.791Z,996.46
2018-03-28T10:50:42.460Z,996.26
2018-03-28T10:55:37.023Z,996.09
2018-03-28T11:00:37.874Z,996.14
2018-03-28T11:05:32.540Z,996.04
2018-03-28T11:10:32.259Z,996.03
2018-03-28T11:15:28.175Z,996.00
2018-03-28T11:20:27.740Z,995.92
2018-03-28T11:25:22.562Z,995.85
2018-03-28T11:30:18.301Z,995.72
2018-03-28T11:35:18.818Z,995.62
2018-03-28T11:40:17.780Z,995.43
2018-03-28T11:45:17.682Z,995.40
2018-03-28T11:50:16.298Z,995.33
2018-03-28T11:55:11.701Z,995.23
2018-03-28T12:00:10.942Z,995.21
2018-03-28T12:05:06.959Z,995.04
2018-03-28T12:10:03.530Z,994.95
2018-03-28T12:15:03.883Z,994.88
2018-03-28T12:19:58.451Z,994.77
2018-03-28T12:24:59.404Z,994.72
2018-03-28T12:29:53.804Z,994.64
2018-03-28T12:34:53.681Z,994.52
2018-03-28T12:39:52.673Z,994.51
2018-03-28T12:44:51.352Z,994.43
2018-03-28T12:49:46.219Z,994.29
2018-03-28T12:54:41.862Z,994.12
2018-03-28T12:59:37.653Z,994.09
2018-03-28T13:04:38.912Z,994.07
2018-03-28T13:09:33.674Z,993.84
2018-03-28T13:14:33.114Z,993.72
2018-03-28T13:19:32.657Z,993.69
2018-03-28T13:24:31.315Z,993.48
2018-03-28T13:29:32.374Z,993.49
2018-03-28T13:34:30.275Z,993.40
2018-03-28T13:39:25.543Z,993.31
2018-03-28T13:44:21.557Z,993.16
2018-03-28T13:49:17.334Z,992.98
2018-03-28T13:54:13.001Z,992.96
2018-03-28T13:59:14.012Z,992.77
2018-03-28T14:04:09.772Z,992.75
2018-03-28T14:09:05.055Z,992.73
2018-03-28T14:14:05.987Z,992.57
2018-03-28T14:19:00.930Z,992.43
2018-03-28T14:23:56.823Z,992.37
2018-03-28T14:28:52.614Z,992.35
2018-03-28T14:33:53.185Z,992.28
2018-03-28T14:38:52.098Z,992.25
2018-03-28T14:43:50.861Z,992.11
2018-03-28T14:48:46.951Z,992.07
2018-03-28T14:53:47.433Z,991.89
2018-03-28T14:58:46.139Z,991.82
2018-03-28T15:03:42.100Z,991.71
2018-03-28T15:08:37.757Z,991.55
2018-03-28T15:13:38.489Z,991.34
2018-03-28T15:18:37.189Z,991.25
2018-03-28T15:23:32.054Z,991.15
2018-03-28T15:28:32.710Z,991.06
2018-03-28T15:33:31.436Z,990.97
2018-03-28T15:38:26.976Z,990.96
2018-03-28T15:43:27.898Z,990.82
2018-03-28T15:48:22.481Z,990.63
2018-03-28T15:53:19.294Z,990.66
2018-03-28T15:58:14.826Z,990.60
2018-03-28T16:03:15.643Z,990.48
2018-03-28T16:08:10.520Z,990.17
2018-03-28T16:13:12.133Z,990.06
2018-03-28T16:18:07.011Z,989.91
2018-03-28T16:23:07.736Z,989.96
2018-03-28T16:28:07.535Z,989.85
2018-03-28T16:33:07.489Z,989.65
2018-03-28T16:38:06.561Z,989.65
2018-03-28T16:43:03.153Z,989.39
2018-03-28T16:48:02.739Z,989.41
2018-03-28T16:52:57.879Z,989.26
2018-03-28T16:57:53.552Z,989.24
2018-03-28T17:02:53.535Z,989.19
2018-03-28T17:07:48.764Z,989.21
2018-03-28T17:12:44.795Z,989.14
2018-03-28T17:17:41.470Z,989.07
2018-03-28T17:22:40.752Z,988.97
2018-03-28T17:27:40.793Z,988.81
2018-03-28T17:32:35.434Z,988.67
2018-03-28T17:37:36.313Z,988.46
2018-03-28T17:42:31.696Z,988.50
2018-03-28T17:47:27.396Z,988.39
2018-03-28T17:52:28.813Z,988.31
2018-03-28T17:57:27.943Z,988.27
2018-03-28T18:02:27.825Z,988.09
2018-03-28T18:07:27.994Z,988.09
2018-03-28T18:12:27.573Z,987.89
2018-03-28T18:17:28.003Z,987.99
2018-03-28T18:22:23.603Z,987.94
2018-03-28T18:27:23.836Z,987.82
2018-03-28T18:32:19.526Z,987.71
2018-03-28T18:37:21.816Z,987.68
2018-03-28T18:42:23.893Z,987.64
2018-03-28T18:47:18.993Z,987.58
2018-03-28T18:52:20.375Z,987.51
2018-03-28T18:57:16.067Z,987.61
2018-03-28T19:02:14.056Z,987.55
2018-03-28T19:07:14.943Z,987.39
2018-03-28T19:12:16.452Z,987.35
2018-03-28T19:17:18.705Z,987.36
2018-03-28T19:27:25.966Z,987.42
2018-03-28T19:32:23.102Z,987.55
2018-03-28T19:37:19.461Z,987.65
2018-03-28T19:42:16.068Z,987.69
2018-03-28T19:47:15.519Z,988.02
2018-03-28T19:52:16.680Z,988.19
2018-03-28T19:57:12.999Z,988.35
2018-03-28T20:02:14.816Z,988.53
2018-03-28T20:07:09.562Z,988.74
2018-03-28T20:12:05.242Z,989.00
2018-03-28T20:17:05.194Z,989.13
2018-03-28T20:22:04.699Z,989.28
2018-03-28T20:27:00.416Z,989.36
2018-03-28T20:32:02.004Z,989.44
2018-03-28T20:37:01.422Z,989.65
2018-03-28T20:41:58.198Z,989.97
2018-03-28T20:46:53.519Z,990.01
2018-03-28T20:51:53.339Z,990.25
2018-03-28T20:56:48.535Z,990.45
2018-03-28T21:01:48.376Z,990.73
2018-03-28T21:06:47.293Z,990.91
2018-03-28T21:11:42.494Z,991.01
2018-03-28T21:16:42.177Z,991.24
2018-03-28T21:21:37.193Z,991.32
2018-03-28T21:31:43.128Z,991.59
2018-03-28T21:36:42.647Z,991.61
2018-03-28T21:41:37.674Z,991.84
2018-03-28T21:46:38.274Z,991.83
2018-03-28T21:51:33.867Z,992.06
2018-03-28T21:56:34.418Z,992.34
2018-03-28T22:01:33.000Z,992.43
2018-03-28T22:06:31.652Z,992.46
2018-03-28T22:11:30.223Z,992.64
2018-03-28T22:16:25.995Z,992.83
2018-03-28T22:21:22.377Z,992.89
2018-03-28T22:26:19.213Z,993.04
2018-03-28T22:31:19.973Z,993.19
2018-03-28T22:36:16.039Z,993.33
2018-03-28T22:41:13.752Z,993.41
2018-03-28T22:46:13.956Z,993.56
2018-03-28T22:51:08.954Z,993.54
2018-03-28T22:56:05.590Z,993.70
2018-03-28T23:01:06.086Z,993.87
2018-03-28T23:06:01.274Z,993.80
2018-03-28T23:10:57.169Z,993.84
2018-03-28T23:15:57.714Z,993.98
2018-03-28T23:20:58.742Z,994.03
2018-03-28T23:25:57.710Z,994.17
2018-03-28T23:30:53.868Z,994.40
2018-03-28T23:35:54.140Z,994.40
2018-03-28T23:40:49.973Z,994.53
2018-03-28T23:45:49.377Z,994.67
2018-03-28T23:50:49.759Z,994.72
2018-03-28T23:55:45.250Z,994.80
